Grand Junction, CO (81504)

9:11 PM MDT on October 24, 2014 (GMT -0600)
Meadowvale | Change Station
CLOSE
Current Station
Personal Weather Station
Location: Grand Junction, CO
Elevation: 4642 ft
Nearby Weather Stations

Elev 4642 ft 39.07 °N, 108.48 °W | Updated 18 seconds ago

Clear
Clear
54.0 °F
Feels Like 54.0 °F
N
0.0
Wind Variable Wind from East
Gusts 2.2 mph

Today
High -- | Low -- °F
--% Chance of Precip.
Yesterday
High -- | Low -- °F
Precip. -- in
7:32 AM 6:22 PM
New Moon, 2% visible
Pressure 30.15 in
Visibility 10.0 miles
Clouds Clear
Dew Point 42 °F
Humidity 65%
Rainfall 0.00 in
Snow Depth Not available.
UV 0 out of 12
Pollen 1.80 out of 12
Air Quality Not available.
Flu Activity Sporadic
METAR KGJT 250253Z 06007KT 10SM CLR 11/01 A3022 RMK AO2 SLP209 T01110011 53006

More Conditions Fewer Conditions

Pressure 30.15 in
Visibility 10.0 miles
Clouds Clear
Dew Point 42 °F
Humidity 65%
Rainfall 0.00 in
Snow Depth Not available.
UV 0 out of 12
Pollen 1.80 out of 12
Air Quality Not available.
Flu Activity Sporadic
METAR KGJT 250253Z 06007KT 10SM CLR 11/01 A3022 RMK AO2 SLP209 T01110011 53006

More Conditions Fewer Conditions

10-Day Weather Forecast

Almanac

Astronomy

Oct. 24, 2014 Rise Set
Actual Time 7:32 AM MDT 6:22 PM MDT
Civil Twilight 7:05 AM MDT 6:50 PM MDT
Nautical Twilight 6:34 AM MDT 7:21 PM MDT
Astronomical Twilight 6:03 AM MDT 7:52 PM MDT
Moon 8:14 AM MDT (10/24) 7:05 PM MDT (10/24)
Length of Visible Light 11h 44m
Length of Day
10h 49m
Tomorrow will be 2m 20s shorter.
New Moon, 2% of the Moon is Illuminated
Today
New Moon
Oct 30
First Quarter
Nov 6
Full
Nov 14
Last Quarter
Nov 22
New

Today's Extremes

State Highs State Lows

Community

WunderPhotos

Upload Photos

1,764,763 photos uploaded!

Nearby

Snow Depth

Station Depth Elevation
Mesa Lakes 0 in 10000 ft
Park Reservoir 0 in 9960 ft
Overland Reservoir 0 in 9880 ft
Columbine Pass 1 in 9400 ft
McClure Pass 0 in 9500 ft

Earthquake Activity

City Distance Mag. Time & Date
No recent earthquake activity has been reported nearby.
Minimum magnitude displayed is 2.5.

Coastal Water Temperatures

Place Temperature
No Stations Reporting

Nearby Weather Stations